sensor_id;sensor_type;location;lat;lon;timestamp;P1;durP1;ratioP1;P2;durP2;ratioP2
21138;SDS011;10727;43.600;1.444;2023-03-23T00:01:06;3.83;;;1.77;;
21138;SDS011;10727;43.600;1.444;2023-03-23T00:04:14;3.20;;;1.88;;
21138;SDS011;10727;43.600;1.444;2023-03-23T00:07:19;2.90;;;1.90;;
21138;SDS011;10727;43.600;1.444;2023-03-23T00:10:25;3.33;;;1.83;;
21138;SDS011;10727;43.600;1.444;2023-03-23T00:13:30;1.95;;;1.70;;
21138;SDS011;10727;43.600;1.444;2023-03-23T00:16:35;6.90;;;1.80;;
21138;SDS011;10727;43.600;1.444;2023-03-23T00:19:44;3.78;;;1.63;;
21138;SDS011;10727;43.600;1.444;2023-03-23T00:22:49;3.63;;;1.92;;
21138;SDS011;10727;43.600;1.444;2023-03-23T00:25:55;4.82;;;2.10;;
21138;SDS011;10727;43.600;1.444;2023-03-23T00:29:01;4.90;;;2.05;;
21138;SDS011;10727;43.600;1.444;2023-03-23T00:32:06;4.82;;;2.35;;
21138;SDS011;10727;43.600;1.444;2023-03-23T00:35:16;4.72;;;3.30;;
21138;SDS011;10727;43.600;1.444;2023-03-23T00:38:22;5.00;;;2.58;;
21138;SDS011;10727;43.600;1.444;2023-03-23T00:41:30;4.43;;;2.60;;
21138;SDS011;10727;43.600;1.444;2023-03-23T00:44:36;5.53;;;3.08;;
21138;SDS011;10727;43.600;1.444;2023-03-23T00:47:42;4.57;;;3.35;;
21138;SDS011;10727;43.600;1.444;2023-03-23T00:50:50;8.13;;;3.97;;
21138;SDS011;10727;43.600;1.444;2023-03-23T00:53:57;8.75;;;3.90;;
21138;SDS011;10727;43.600;1.444;2023-03-23T00:57:03;6.32;;;4.47;;
21138;SDS011;10727;43.600;1.444;2023-03-23T01:00:09;6.10;;;4.55;;
21138;SDS011;10727;43.600;1.444;2023-03-23T01:03:15;7.95;;;4.68;;
21138;SDS011;10727;43.600;1.444;2023-03-23T01:06:22;6.90;;;4.72;;
21138;SDS011;10727;43.600;1.444;2023-03-23T01:09:27;8.27;;;5.05;;
21138;SDS011;10727;43.600;1.444;2023-03-23T01:12:32;7.40;;;4.90;;
21138;SDS011;10727;43.600;1.444;2023-03-23T01:15:38;7.10;;;4.88;;
21138;SDS011;10727;43.600;1.444;2023-03-23T01:18:43;8.65;;;6.45;;
21138;SDS011;10727;43.600;1.444;2023-03-23T01:21:50;10.70;;;6.15;;
21138;SDS011;10727;43.600;1.444;2023-03-23T01:24:55;9.70;;;5.72;;
21138;SDS011;10727;43.600;1.444;2023-03-23T01:28:00;8.75;;;6.25;;
21138;SDS011;10727;43.600;1.444;2023-03-23T01:31:06;9.13;;;5.95;;
21138;SDS011;10727;43.600;1.444;2023-03-23T01:34:12;8.23;;;5.63;;
21138;SDS011;10727;43.600;1.444;2023-03-23T01:37:19;9.05;;;6.47;;
21138;SDS011;10727;43.600;1.444;2023-03-23T01:40:29;10.23;;;6.60;;
21138;SDS011;10727;43.600;1.444;2023-03-23T01:43:34;10.93;;;6.95;;
21138;SDS011;10727;43.600;1.444;2023-03-23T01:46:39;10.23;;;6.65;;
21138;SDS011;10727;43.600;1.444;2023-03-23T01:49:45;10.73;;;6.28;;
21138;SDS011;10727;43.600;1.444;2023-03-23T01:52:53;13.27;;;8.20;;
21138;SDS011;10727;43.600;1.444;2023-03-23T01:56:00;10.77;;;6.97;;
21138;SDS011;10727;43.600;1.444;2023-03-23T01:59:06;11.55;;;7.43;;
21138;SDS011;10727;43.600;1.444;2023-03-23T02:02:14;10.90;;;7.22;;
21138;SDS011;10727;43.600;1.444;2023-03-23T02:05:22;14.57;;;7.90;;
21138;SDS011;10727;43.600;1.444;2023-03-23T02:08:31;11.60;;;8.27;;
21138;SDS011;10727;43.600;1.444;2023-03-23T02:11:38;12.32;;;8.45;;
21138;SDS011;10727;43.600;1.444;2023-03-23T02:14:44;11.13;;;7.45;;
21138;SDS011;10727;43.600;1.444;2023-03-23T02:17:51;13.60;;;8.50;;
21138;SDS011;10727;43.600;1.444;2023-03-23T02:21:04;11.90;;;8.13;;
21138;SDS011;10727;43.600;1.444;2023-03-23T02:24:21;12.18;;;8.48;;
21138;SDS011;10727;43.600;1.444;2023-03-23T02:27:40;12.65;;;8.57;;
21138;SDS011;10727;43.600;1.444;2023-03-23T02:30:58;11.93;;;8.57;;
21138;SDS011;10727;43.600;1.444;2023-03-23T02:34:08;14.75;;;8.55;;
21138;SDS011;10727;43.600;1.444;2023-03-23T02:37:18;13.52;;;8.52;;
21138;SDS011;10727;43.600;1.444;2023-03-23T02:40:25;16.10;;;9.15;;
21138;SDS011;10727;43.600;1.444;2023-03-23T02:43:33;13.35;;;8.85;;
21138;SDS011;10727;43.600;1.444;2023-03-23T02:46:40;12.35;;;8.10;;
21138;SDS011;10727;43.600;1.444;2023-03-23T02:49:48;12.35;;;8.50;;
21138;SDS011;10727;43.600;1.444;2023-03-23T02:52:56;16.83;;;9.13;;
21138;SDS011;10727;43.600;1.444;2023-03-23T02:56:03;13.02;;;8.68;;
21138;SDS011;10727;43.600;1.444;2023-03-23T02:59:09;17.05;;;8.98;;
21138;SDS011;10727;43.600;1.444;2023-03-23T03:02:15;12.95;;;8.32;;
21138;SDS011;10727;43.600;1.444;2023-03-23T03:05:26;15.85;;;8.48;;
21138;SDS011;10727;43.600;1.444;2023-03-23T03:08:35;12.15;;;8.30;;
21138;SDS011;10727;43.600;1.444;2023-03-23T03:11:45;12.63;;;7.93;;
21138;SDS011;10727;43.600;1.444;2023-03-23T03:14:55;11.27;;;8.05;;
21138;SDS011;10727;43.600;1.444;2023-03-23T03:18:06;13.13;;;7.38;;
21138;SDS011;10727;43.600;1.444;2023-03-23T03:21:16;12.80;;;8.23;;
21138;SDS011;10727;43.600;1.444;2023-03-23T03:24:24;12.48;;;8.55;;
21138;SDS011;10727;43.600;1.444;2023-03-23T03:27:29;14.05;;;8.52;;
21138;SDS011;10727;43.600;1.444;2023-03-23T03:30:55;14.45;;;8.02;;
21138;SDS011;10727;43.600;1.444;2023-03-23T03:34:03;13.18;;;8.05;;
21138;SDS011;10727;43.600;1.444;2023-03-23T03:37:13;14.50;;;7.93;;
21138;SDS011;10727;43.600;1.444;2023-03-23T03:40:20;12.80;;;7.30;;
21138;SDS011;10727;43.600;1.444;2023-03-23T03:43:27;12.57;;;7.78;;
21138;SDS011;10727;43.600;1.444;2023-03-23T03:46:32;12.57;;;8.05;;
21138;SDS011;10727;43.600;1.444;2023-03-23T03:49:37;12.98;;;7.07;;
21138;SDS011;10727;43.600;1.444;2023-03-23T03:52:44;11.93;;;7.65;;
21138;SDS011;10727;43.600;1.444;2023-03-23T03:55:50;10.25;;;7.07;;
21138;SDS011;10727;43.600;1.444;2023-03-23T03:58:58;14.68;;;7.85;;
21138;SDS011;10727;43.600;1.444;2023-03-23T04:02:21;10.85;;;7.22;;
21138;SDS011;10727;43.600;1.444;2023-03-23T04:05:28;13.07;;;6.40;;
21138;SDS011;10727;43.600;1.444;2023-03-23T04:08:35;9.40;;;6.57;;
21138;SDS011;10727;43.600;1.444;2023-03-23T04:11:41;14.25;;;6.93;;
21138;SDS011;10727;43.600;1.444;2023-03-23T04:15:18;12.13;;;6.60;;
21138;SDS011;10727;43.600;1.444;2023-03-23T04:18:25;11.13;;;6.45;;
21138;SDS011;10727;43.600;1.444;2023-03-23T04:21:31;14.35;;;7.00;;
21138;SDS011;10727;43.600;1.444;2023-03-23T04:24:38;13.80;;;6.90;;
21138;SDS011;10727;43.600;1.444;2023-03-23T04:27:48;12.35;;;6.88;;
21138;SDS011;10727;43.600;1.444;2023-03-23T04:30:57;11.85;;;6.82;;
21138;SDS011;10727;43.600;1.444;2023-03-23T04:34:02;11.40;;;6.80;;
21138;SDS011;10727;43.600;1.444;2023-03-23T04:37:14;13.32;;;7.75;;
21138;SDS011;10727;43.600;1.444;2023-03-23T04:40:21;13.63;;;7.68;;
21138;SDS011;10727;43.600;1.444;2023-03-23T04:43:37;11.93;;;8.30;;
21138;SDS011;10727;43.600;1.444;2023-03-23T04:47:20;10.52;;;7.00;;
21138;SDS011;10727;43.600;1.444;2023-03-23T04:50:32;13.85;;;7.90;;
21138;SDS011;10727;43.600;1.444;2023-03-23T04:53:45;13.57;;;7.65;;
21138;SDS011;10727;43.600;1.444;2023-03-23T04:56:52;12.23;;;7.95;;
21138;SDS011;10727;43.600;1.444;2023-03-23T04:59:58;14.95;;;8.25;;
21138;SDS011;10727;43.600;1.444;2023-03-23T05:03:15;11.45;;;8.13;;
21138;SDS011;10727;43.600;1.444;2023-03-23T05:06:21;12.68;;;7.90;;
21138;SDS011;10727;43.600;1.444;2023-03-23T05:09:31;13.65;;;7.53;;
21138;SDS011;10727;43.600;1.444;2023-03-23T05:12:38;12.13;;;8.40;;
21138;SDS011;10727;43.600;1.444;2023-03-23T05:15:46;11.27;;;7.55;;
21138;SDS011;10727;43.600;1.444;2023-03-23T05:18:52;12.52;;;8.30;;
21138;SDS011;10727;43.600;1.444;2023-03-23T05:22:00;14.02;;;8.50;;
21138;SDS011;10727;43.600;1.444;2023-03-23T05:25:13;11.77;;;7.90;;
21138;SDS011;10727;43.600;1.444;2023-03-23T05:28:24;12.70;;;8.43;;
21138;SDS011;10727;43.600;1.444;2023-03-23T05:31:47;13.77;;;7.68;;
21138;SDS011;10727;43.600;1.444;2023-03-23T05:34:52;14.43;;;8.07;;
21138;SDS011;10727;43.600;1.444;2023-03-23T05:37:59;11.23;;;8.20;;
21138;SDS011;10727;43.600;1.444;2023-03-23T05:41:05;15.05;;;7.72;;
21138;SDS011;10727;43.600;1.444;2023-03-23T05:44:16;13.00;;;8.25;;
21138;SDS011;10727;43.600;1.444;2023-03-23T05:47:24;13.05;;;7.80;;
21138;SDS011;10727;43.600;1.444;2023-03-23T05:50:33;15.40;;;8.90;;
21138;SDS011;10727;43.600;1.444;2023-03-23T05:53:39;13.70;;;8.00;;
21138;SDS011;10727;43.600;1.444;2023-03-23T05:56:45;12.93;;;8.30;;
21138;SDS011;10727;43.600;1.444;2023-03-23T06:00:12;12.13;;;8.35;;
21138;SDS011;10727;43.600;1.444;2023-03-23T06:03:27;13.85;;;8.43;;
21138;SDS011;10727;43.600;1.444;2023-03-23T06:06:42;15.20;;;8.20;;
21138;SDS011;10727;43.600;1.444;2023-03-23T06:09:48;12.00;;;8.60;;
21138;SDS011;10727;43.600;1.444;2023-03-23T06:13:02;11.75;;;8.20;;
21138;SDS011;10727;43.600;1.444;2023-03-23T06:16:18;13.27;;;8.43;;
21138;SDS011;10727;43.600;1.444;2023-03-23T06:19:34;13.70;;;9.10;;
21138;SDS011;10727;43.600;1.444;2023-03-23T06:22:47;13.13;;;8.52;;
21138;SDS011;10727;43.600;1.444;2023-03-23T06:26:03;14.65;;;8.10;;
21138;SDS011;10727;43.600;1.444;2023-03-23T06:29:10;16.50;;;8.35;;
21138;SDS011;10727;43.600;1.444;2023-03-23T06:32:21;13.45;;;7.85;;
21138;SDS011;10727;43.600;1.444;2023-03-23T06:35:28;10.50;;;7.88;;
21138;SDS011;10727;43.600;1.444;2023-03-23T06:38:50;15.10;;;8.05;;
21138;SDS011;10727;43.600;1.444;2023-03-23T06:42:01;14.05;;;7.75;;
21138;SDS011;10727;43.600;1.444;2023-03-23T06:45:10;12.45;;;7.45;;
21138;SDS011;10727;43.600;1.444;2023-03-23T06:48:19;16.48;;;7.72;;
21138;SDS011;10727;43.600;1.444;2023-03-23T06:51:25;9.20;;;7.40;;
21138;SDS011;10727;43.600;1.444;2023-03-23T06:54:31;13.07;;;6.97;;
21138;SDS011;10727;43.600;1.444;2023-03-23T06:57:39;10.80;;;7.13;;
21138;SDS011;10727;43.600;1.444;2023-03-23T07:00:44;12.23;;;7.47;;
21138;SDS011;10727;43.600;1.444;2023-03-23T07:03:54;11.32;;;7.13;;
21138;SDS011;10727;43.600;1.444;2023-03-23T07:07:12;10.48;;;7.03;;
21138;SDS011;10727;43.600;1.444;2023-03-23T07:10:27;10.07;;;7.03;;
21138;SDS011;10727;43.600;1.444;2023-03-23T07:13:32;10.80;;;7.28;;
21138;SDS011;10727;43.600;1.444;2023-03-23T07:16:37;8.82;;;6.93;;
21138;SDS011;10727;43.600;1.444;2023-03-23T07:19:44;12.60;;;7.75;;
21138;SDS011;10727;43.600;1.444;2023-03-23T07:22:53;15.02;;;7.88;;
21138;SDS011;10727;43.600;1.444;2023-03-23T07:26:36;10.55;;;6.97;;
21138;SDS011;10727;43.600;1.444;2023-03-23T07:29:41;12.57;;;7.40;;
21138;SDS011;10727;43.600;1.444;2023-03-23T07:32:54;12.25;;;7.28;;
21138;SDS011;10727;43.600;1.444;2023-03-23T07:36:01;13.00;;;8.10;;
21138;SDS011;10727;43.600;1.444;2023-03-23T07:39:06;10.90;;;7.13;;
21138;SDS011;10727;43.600;1.444;2023-03-23T07:42:11;13.23;;;8.15;;
21138;SDS011;10727;43.600;1.444;2023-03-23T07:45:33;12.52;;;7.72;;
21138;SDS011;10727;43.600;1.444;2023-03-23T07:48:38;11.98;;;8.20;;
21138;SDS011;10727;43.600;1.444;2023-03-23T07:51:46;13.35;;;8.13;;
21138;SDS011;10727;43.600;1.444;2023-03-23T07:54:53;11.80;;;7.85;;
21138;SDS011;10727;43.600;1.444;2023-03-23T07:58:13;14.35;;;8.00;;
21138;SDS011;10727;43.600;1.444;2023-03-23T08:01:22;14.38;;;7.90;;
21138;SDS011;10727;43.600;1.444;2023-03-23T08:04:47;15.13;;;8.68;;
21138;SDS011;10727;43.600;1.444;2023-03-23T08:08:30;11.05;;;8.05;;
21138;SDS011;10727;43.600;1.444;2023-03-23T08:12:04;18.55;;;8.35;;
21138;SDS011;10727;43.600;1.444;2023-03-23T08:15:28;15.48;;;8.88;;
21138;SDS011;10727;43.600;1.444;2023-03-23T08:18:53;11.88;;;8.27;;
21138;SDS011;10727;43.600;1.444;2023-03-23T08:22:19;12.07;;;7.63;;
21138;SDS011;10727;43.600;1.444;2023-03-23T08:25:45;10.68;;;8.35;;
21138;SDS011;10727;43.600;1.444;2023-03-23T08:28:56;12.35;;;7.63;;
21138;SDS011;10727;43.600;1.444;2023-03-23T08:32:20;12.32;;;7.50;;
21138;SDS011;10727;43.600;1.444;2023-03-23T08:35:38;12.23;;;8.00;;
21138;SDS011;10727;43.600;1.444;2023-03-23T08:39:04;11.82;;;7.18;;
21138;SDS011;10727;43.600;1.444;2023-03-23T08:42:32;12.93;;;7.18;;
21138;SDS011;10727;43.600;1.444;2023-03-23T08:45:56;11.43;;;7.68;;
21138;SDS011;10727;43.600;1.444;2023-03-23T08:49:22;10.70;;;7.43;;
21138;SDS011;10727;43.600;1.444;2023-03-23T08:52:51;13.07;;;8.20;;
21138;SDS011;10727;43.600;1.444;2023-03-23T08:56:17;12.55;;;7.88;;
21138;SDS011;10727;43.600;1.444;2023-03-23T08:59:42;10.50;;;6.55;;
21138;SDS011;10727;43.600;1.444;2023-03-23T09:03:10;8.98;;;6.65;;
21138;SDS011;10727;43.600;1.444;2023-03-23T09:06:48;7.90;;;6.57;;
21138;SDS011;10727;43.600;1.444;2023-03-23T09:09:54;8.55;;;6.28;;
21138;SDS011;10727;43.600;1.444;2023-03-23T09:13:00;10.60;;;7.10;;
21138;SDS011;10727;43.600;1.444;2023-03-23T09:16:07;13.25;;;7.40;;
21138;SDS011;10727;43.600;1.444;2023-03-23T09:19:13;11.13;;;6.97;;
21138;SDS011;10727;43.600;1.444;2023-03-23T09:22:18;9.95;;;6.75;;
21138;SDS011;10727;43.600;1.444;2023-03-23T09:25:26;7.68;;;6.10;;
21138;SDS011;10727;43.600;1.444;2023-03-23T09:28:31;8.98;;;6.90;;
21138;SDS011;10727;43.600;1.444;2023-03-23T09:31:38;8.35;;;6.47;;
21138;SDS011;10727;43.600;1.444;2023-03-23T09:34:44;9.73;;;6.95;;
21138;SDS011;10727;43.600;1.444;2023-03-23T09:37:51;11.57;;;7.78;;
21138;SDS011;10727;43.600;1.444;2023-03-23T09:40:59;12.90;;;6.55;;
21138;SDS011;10727;43.600;1.444;2023-03-23T09:44:07;17.92;;;6.72;;
21138;SDS011;10727;43.600;1.444;2023-03-23T09:47:18;9.35;;;6.75;;
21138;SDS011;10727;43.600;1.444;2023-03-23T09:50:27;10.95;;;6.50;;
21138;SDS011;10727;43.600;1.444;2023-03-23T09:53:36;9.77;;;6.70;;
21138;SDS011;10727;43.600;1.444;2023-03-23T09:56:43;10.23;;;6.10;;
21138;SDS011;10727;43.600;1.444;2023-03-23T09:59:51;10.38;;;6.80;;
21138;SDS011;10727;43.600;1.444;2023-03-23T10:03:02;9.88;;;6.57;;
21138;SDS011;10727;43.600;1.444;2023-03-23T10:06:11;7.50;;;6.20;;
21138;SDS011;10727;43.600;1.444;2023-03-23T10:09:17;8.55;;;6.28;;
21138;SDS011;10727;43.600;1.444;2023-03-23T10:12:26;11.73;;;6.05;;
21138;SDS011;10727;43.600;1.444;2023-03-23T10:15:33;9.60;;;6.93;;
21138;SDS011;10727;43.600;1.444;2023-03-23T10:18:43;7.25;;;5.82;;
21138;SDS011;10727;43.600;1.444;2023-03-23T10:21:50;13.18;;;5.85;;
21138;SDS011;10727;43.600;1.444;2023-03-23T10:24:57;7.28;;;5.63;;
21138;SDS011;10727;43.600;1.444;2023-03-23T10:28:08;7.97;;;5.35;;
21138;SDS011;10727;43.600;1.444;2023-03-23T10:31:15;10.25;;;5.80;;
21138;SDS011;10727;43.600;1.444;2023-03-23T10:34:25;6.50;;;5.05;;
21138;SDS011;10727;43.600;1.444;2023-03-23T10:37:34;7.40;;;5.47;;
21138;SDS011;10727;43.600;1.444;2023-03-23T10:40:44;12.00;;;8.05;;
21138;SDS011;10727;43.600;1.444;2023-03-23T10:43:51;9.18;;;6.60;;
21138;SDS011;10727;43.600;1.444;2023-03-23T10:46:58;6.85;;;5.30;;
21138;SDS011;10727;43.600;1.444;2023-03-23T10:50:06;6.60;;;5.50;;
21138;SDS011;10727;43.600;1.444;2023-03-23T10:53:14;11.63;;;8.57;;
21138;SDS011;10727;43.600;1.444;2023-03-23T10:56:22;9.50;;;6.80;;
21138;SDS011;10727;43.600;1.444;2023-03-23T10:59:28;8.45;;;5.95;;
21138;SDS011;10727;43.600;1.444;2023-03-23T11:02:37;9.07;;;6.30;;
21138;SDS011;10727;43.600;1.444;2023-03-23T11:05:44;7.60;;;6.47;;
21138;SDS011;10727;43.600;1.444;2023-03-23T11:08:52;15.02;;;8.52;;
21138;SDS011;10727;43.600;1.444;2023-03-23T11:11:57;11.18;;;6.70;;
21138;SDS011;10727;43.600;1.444;2023-03-23T11:15:03;11.73;;;7.65;;
21138;SDS011;10727;43.600;1.444;2023-03-23T11:18:10;10.45;;;8.32;;
21138;SDS011;10727;43.600;1.444;2023-03-23T11:21:17;10.85;;;6.60;;
21138;SDS011;10727;43.600;1.444;2023-03-23T11:24:22;7.15;;;6.30;;
21138;SDS011;10727;43.600;1.444;2023-03-23T11:27:28;9.68;;;6.53;;
21138;SDS011;10727;43.600;1.444;2023-03-23T11:30:34;10.90;;;7.00;;
21138;SDS011;10727;43.600;1.444;2023-03-23T11:33:41;9.65;;;5.95;;
21138;SDS011;10727;43.600;1.444;2023-03-23T11:36:49;10.07;;;6.93;;
21138;SDS011;10727;43.600;1.444;2023-03-23T11:39:56;12.50;;;7.15;;
21138;SDS011;10727;43.600;1.444;2023-03-23T11:43:07;14.98;;;9.63;;
21138;SDS011;10727;43.600;1.444;2023-03-23T11:46:15;12.43;;;8.23;;
21138;SDS011;10727;43.600;1.444;2023-03-23T11:49:25;9.68;;;7.55;;
21138;SDS011;10727;43.600;1.444;2023-03-23T11:52:35;10.68;;;6.97;;
21138;SDS011;10727;43.600;1.444;2023-03-23T11:55:50;11.00;;;8.65;;
21138;SDS011;10727;43.600;1.444;2023-03-23T11:58:58;11.02;;;7.47;;
21138;SDS011;10727;43.600;1.444;2023-03-23T12:02:07;15.02;;;6.82;;
21138;SDS011;10727;43.600;1.444;2023-03-23T12:05:20;11.52;;;5.88;;
21138;SDS011;10727;43.600;1.444;2023-03-23T12:08:34;11.07;;;7.30;;
21138;SDS011;10727;43.600;1.444;2023-03-23T12:11:45;12.57;;;9.02;;
21138;SDS011;10727;43.600;1.444;2023-03-23T12:14:56;17.77;;;12.23;;
21138;SDS011;10727;43.600;1.444;2023-03-23T12:18:05;8.52;;;6.55;;
21138;SDS011;10727;43.600;1.444;2023-03-23T12:21:14;13.48;;;7.20;;
21138;SDS011;10727;43.600;1.444;2023-03-23T12:24:27;11.63;;;6.47;;
21138;SDS011;10727;43.600;1.444;2023-03-23T12:27:37;10.00;;;6.35;;
21138;SDS011;10727;43.600;1.444;2023-03-23T12:30:47;9.55;;;6.10;;
21138;SDS011;10727;43.600;1.444;2023-03-23T12:33:54;7.35;;;5.78;;
21138;SDS011;10727;43.600;1.444;2023-03-23T12:37:08;9.15;;;6.20;;
21138;SDS011;10727;43.600;1.444;2023-03-23T12:40:21;10.93;;;6.80;;
21138;SDS011;10727;43.600;1.444;2023-03-23T12:43:31;8.75;;;6.40;;
21138;SDS011;10727;43.600;1.444;2023-03-23T12:46:58;7.43;;;6.35;;
21138;SDS011;10727;43.600;1.444;2023-03-23T12:50:09;8.95;;;6.90;;
21138;SDS011;10727;43.600;1.444;2023-03-23T12:53:18;11.95;;;7.32;;
21138;SDS011;10727;43.600;1.444;2023-03-23T12:56:29;8.05;;;6.72;;
21138;SDS011;10727;43.600;1.444;2023-03-23T12:59:36;10.32;;;6.25;;
21138;SDS011;10727;43.600;1.444;2023-03-23T13:02:44;12.55;;;6.30;;
21138;SDS011;10727;43.600;1.444;2023-03-23T13:05:52;9.07;;;6.15;;
21138;SDS011;10727;43.600;1.444;2023-03-23T13:08:59;8.82;;;5.65;;
21138;SDS011;10727;43.600;1.444;2023-03-23T13:12:08;12.25;;;5.72;;
21138;SDS011;10727;43.600;1.444;2023-03-23T13:15:18;10.93;;;5.97;;
21138;SDS011;10727;43.600;1.444;2023-03-23T13:18:27;8.15;;;5.57;;
21138;SDS011;10727;43.600;1.444;2023-03-23T13:21:34;8.50;;;6.03;;
21138;SDS011;10727;43.600;1.444;2023-03-23T13:24:46;10.02;;;6.00;;
21138;SDS011;10727;43.600;1.444;2023-03-23T13:27:57;10.00;;;5.65;;
21138;SDS011;10727;43.600;1.444;2023-03-23T13:31:12;9.05;;;5.88;;
21138;SDS011;10727;43.600;1.444;2023-03-23T13:34:18;7.43;;;5.40;;
21138;SDS011;10727;43.600;1.444;2023-03-23T13:37:24;14.35;;;5.25;;
21138;SDS011;10727;43.600;1.444;2023-03-23T13:40:30;8.25;;;5.45;;
21138;SDS011;10727;43.600;1.444;2023-03-23T13:43:37;7.47;;;5.05;;
21138;SDS011;10727;43.600;1.444;2023-03-23T13:46:53;8.88;;;5.25;;
21138;SDS011;10727;43.600;1.444;2023-03-23T13:49:59;6.85;;;5.30;;
21138;SDS011;10727;43.600;1.444;2023-03-23T13:53:12;7.75;;;5.55;;
21138;SDS011;10727;43.600;1.444;2023-03-23T13:56:19;10.30;;;6.28;;
21138;SDS011;10727;43.600;1.444;2023-03-23T13:59:31;7.57;;;5.30;;
21138;SDS011;10727;43.600;1.444;2023-03-23T14:02:37;9.13;;;5.32;;
21138;SDS011;10727;43.600;1.444;2023-03-23T14:05:48;8.65;;;5.70;;
21138;SDS011;10727;43.600;1.444;2023-03-23T14:08:54;9.40;;;5.32;;
21138;SDS011;10727;43.600;1.444;2023-03-23T14:12:00;10.90;;;5.28;;
21138;SDS011;10727;43.600;1.444;2023-03-23T14:15:13;11.35;;;8.13;;
21138;SDS011;10727;43.600;1.444;2023-03-23T14:18:18;9.00;;;5.80;;
21138;SDS011;10727;43.600;1.444;2023-03-23T14:21:33;12.40;;;7.03;;
21138;SDS011;10727;43.600;1.444;2023-03-23T14:24:39;8.25;;;5.15;;
21138;SDS011;10727;43.600;1.444;2023-03-23T14:27:45;9.25;;;4.95;;
21138;SDS011;10727;43.600;1.444;2023-03-23T14:30:53;9.35;;;5.43;;
21138;SDS011;10727;43.600;1.444;2023-03-23T14:34:01;9.32;;;6.20;;
21138;SDS011;10727;43.600;1.444;2023-03-23T14:37:09;7.05;;;5.40;;
21138;SDS011;10727;43.600;1.444;2023-03-23T14:40:17;9.35;;;5.63;;
21138;SDS011;10727;43.600;1.444;2023-03-23T14:43:22;8.45;;;5.13;;
21138;SDS011;10727;43.600;1.444;2023-03-23T14:46:30;7.68;;;5.50;;
21138;SDS011;10727;43.600;1.444;2023-03-23T14:49:36;8.73;;;5.50;;
21138;SDS011;10727;43.600;1.444;2023-03-23T14:52:41;10.85;;;6.53;;
21138;SDS011;10727;43.600;1.444;2023-03-23T14:55:46;13.27;;;6.88;;
21138;SDS011;10727;43.600;1.444;2023-03-23T14:58:52;12.60;;;6.80;;
21138;SDS011;10727;43.600;1.444;2023-03-23T15:01:58;8.45;;;6.13;;
21138;SDS011;10727;43.600;1.444;2023-03-23T15:05:06;12.65;;;5.80;;
21138;SDS011;10727;43.600;1.444;2023-03-23T15:08:15;13.95;;;6.05;;
21138;SDS011;10727;43.600;1.444;2023-03-23T15:11:24;9.48;;;6.28;;
21138;SDS011;10727;43.600;1.444;2023-03-23T15:14:34;7.47;;;6.00;;
21138;SDS011;10727;43.600;1.444;2023-03-23T15:17:45;10.25;;;6.32;;
21138;SDS011;10727;43.600;1.444;2023-03-23T15:20:50;8.35;;;5.65;;
21138;SDS011;10727;43.600;1.444;2023-03-23T15:23:55;11.23;;;6.78;;
21138;SDS011;10727;43.600;1.444;2023-03-23T15:27:11;10.30;;;6.00;;
21138;SDS011;10727;43.600;1.444;2023-03-23T15:30:27;11.45;;;6.20;;
21138;SDS011;10727;43.600;1.444;2023-03-23T15:33:35;12.27;;;5.50;;
21138;SDS011;10727;43.600;1.444;2023-03-23T15:36:41;9.85;;;5.70;;
21138;SDS011;10727;43.600;1.444;2023-03-23T15:39:46;11.27;;;6.10;;
21138;SDS011;10727;43.600;1.444;2023-03-23T15:43:05;12.50;;;6.03;;
21138;SDS011;10727;43.600;1.444;2023-03-23T15:46:19;8.20;;;5.30;;
21138;SDS011;10727;43.600;1.444;2023-03-23T15:49:26;12.23;;;5.80;;
21138;SDS011;10727;43.600;1.444;2023-03-23T15:52:31;14.18;;;6.10;;
21138;SDS011;10727;43.600;1.444;2023-03-23T15:55:37;10.63;;;5.60;;
21138;SDS011;10727;43.600;1.444;2023-03-23T15:58:43;8.35;;;5.40;;
21138;SDS011;10727;43.600;1.444;2023-03-23T16:01:48;9.18;;;5.55;;
21138;SDS011;10727;43.600;1.444;2023-03-23T16:04:54;10.63;;;5.35;;
21138;SDS011;10727;43.600;1.444;2023-03-23T16:07:59;7.07;;;5.18;;
21138;SDS011;10727;43.600;1.444;2023-03-23T16:11:04;10.48;;;5.30;;
21138;SDS011;10727;43.600;1.444;2023-03-23T16:14:10;8.57;;;5.50;;
21138;SDS011;10727;43.600;1.444;2023-03-23T16:17:16;13.07;;;5.35;;
21138;SDS011;10727;43.600;1.444;2023-03-23T16:20:23;10.10;;;5.57;;
21138;SDS011;10727;43.600;1.444;2023-03-23T16:23:28;9.10;;;5.20;;
21138;SDS011;10727;43.600;1.444;2023-03-23T16:26:34;12.43;;;5.20;;
21138;SDS011;10727;43.600;1.444;2023-03-23T16:29:39;8.82;;;4.70;;
21138;SDS011;10727;43.600;1.444;2023-03-23T16:32:44;8.65;;;5.13;;
21138;SDS011;10727;43.600;1.444;2023-03-23T16:35:51;18.75;;;5.10;;
21138;SDS011;10727;43.600;1.444;2023-03-23T16:38:56;8.63;;;4.78;;
21138;SDS011;10727;43.600;1.444;2023-03-23T16:42:00;12.02;;;5.15;;
21138;SDS011;10727;43.600;1.444;2023-03-23T16:45:06;8.70;;;5.05;;
21138;SDS011;10727;43.600;1.444;2023-03-23T16:48:12;11.27;;;5.28;;
21138;SDS011;10727;43.600;1.444;2023-03-23T16:51:19;8.95;;;5.22;;
21138;SDS011;10727;43.600;1.444;2023-03-23T16:54:24;12.10;;;5.13;;
21138;SDS011;10727;43.600;1.444;2023-03-23T16:57:30;9.57;;;4.90;;
21138;SDS011;10727;43.600;1.444;2023-03-23T17:00:36;13.55;;;5.40;;
21138;SDS011;10727;43.600;1.444;2023-03-23T17:03:42;13.23;;;5.30;;
21138;SDS011;10727;43.600;1.444;2023-03-23T17:06:48;9.70;;;4.90;;
21138;SDS011;10727;43.600;1.444;2023-03-23T17:09:53;9.95;;;5.32;;
21138;SDS011;10727;43.600;1.444;2023-03-23T17:12:59;12.60;;;5.00;;
21138;SDS011;10727;43.600;1.444;2023-03-23T17:16:04;8.68;;;4.65;;
21138;SDS011;10727;43.600;1.444;2023-03-23T17:19:10;11.60;;;4.68;;
21138;SDS011;10727;43.600;1.444;2023-03-23T17:22:17;13.10;;;4.63;;
21138;SDS011;10727;43.600;1.444;2023-03-23T17:25:22;9.48;;;4.47;;
21138;SDS011;10727;43.600;1.444;2023-03-23T17:28:28;8.70;;;4.53;;
21138;SDS011;10727;43.600;1.444;2023-03-23T17:31:33;11.70;;;4.90;;
21138;SDS011;10727;43.600;1.444;2023-03-23T17:34:38;12.93;;;4.80;;
21138;SDS011;10727;43.600;1.444;2023-03-23T17:37:44;12.52;;;4.60;;
21138;SDS011;10727;43.600;1.444;2023-03-23T17:40:54;11.85;;;4.95;;
21138;SDS011;10727;43.600;1.444;2023-03-23T17:43:59;11.93;;;4.95;;
21138;SDS011;10727;43.600;1.444;2023-03-23T17:47:04;9.63;;;5.13;;
21138;SDS011;10727;43.600;1.444;2023-03-23T17:50:10;12.32;;;5.00;;
21138;SDS011;10727;43.600;1.444;2023-03-23T17:53:17;8.02;;;4.68;;
21138;SDS011;10727;43.600;1.444;2023-03-23T17:56:22;14.45;;;5.45;;
21138;SDS011;10727;43.600;1.444;2023-03-23T17:59:28;13.05;;;5.40;;
21138;SDS011;10727;43.600;1.444;2023-03-23T18:02:34;11.02;;;5.28;;
21138;SDS011;10727;43.600;1.444;2023-03-23T18:05:39;12.43;;;5.57;;
21138;SDS011;10727;43.600;1.444;2023-03-23T18:08:46;12.23;;;5.50;;
21138;SDS011;10727;43.600;1.444;2023-03-23T18:11:51;10.77;;;5.60;;
21138;SDS011;10727;43.600;1.444;2023-03-23T18:14:58;8.88;;;5.43;;
21138;SDS011;10727;43.600;1.444;2023-03-23T18:18:04;11.82;;;6.07;;
21138;SDS011;10727;43.600;1.444;2023-03-23T18:21:09;12.43;;;6.53;;
21138;SDS011;10727;43.600;1.444;2023-03-23T18:24:16;12.25;;;6.85;;
21138;SDS011;10727;43.600;1.444;2023-03-23T18:27:23;18.35;;;7.28;;
21138;SDS011;10727;43.600;1.444;2023-03-23T18:30:28;15.93;;;6.30;;
21138;SDS011;10727;43.600;1.444;2023-03-23T18:33:33;13.63;;;7.53;;
21138;SDS011;10727;43.600;1.444;2023-03-23T18:36:39;11.38;;;7.30;;
21138;SDS011;10727;43.600;1.444;2023-03-23T18:39:46;17.38;;;8.77;;
21138;SDS011;10727;43.600;1.444;2023-03-23T18:42:51;16.25;;;9.43;;
21138;SDS011;10727;43.600;1.444;2023-03-23T18:45:56;20.30;;;10.48;;
21138;SDS011;10727;43.600;1.444;2023-03-23T18:49:02;16.63;;;9.98;;